Terminal Aerodrome Forecast
Issued by NWS

Home | Current Version | Previous Version | Text Only | Print | Product List | Glossary Off
Versions: 1 2 3 4 5 6 7 8 9 10 11 12 13 14 15 16 17 18

000
FTUS43 KABR 231134
TAFPIR
TAF
KPIR 231134Z 2312/2412 09010KT P6SM SCT110
     FM231400 12012KT P6SM BKN200
     FM231700 15015G25KT P6SM SCT250
     FM232300 16015KT P6SM VCTS SCT060CB SCT200
     FM240700 16009KT P6SM BKN200=

USA.gov is the U.S. government's official web portal to all federal, state and local government web resources and services.